createdAt,value
2023-02-02T00:04:28.978Z,1.60
2023-02-02T00:09:34.226Z,1.58
2023-02-02T00:14:38.426Z,1.63
2023-02-02T00:19:43.732Z,2.12
2023-02-02T00:24:47.857Z,1.96
2023-02-02T00:29:54.608Z,1.93
2023-02-02T00:35:01.299Z,1.87
2023-02-02T00:40:06.359Z,2.02
2023-02-02T00:45:18.830Z,2.19
2023-02-02T00:50:24.418Z,1.88
2023-02-02T00:55:28.806Z,1.87
2023-02-02T01:00:33.156Z,1.73
2023-02-02T01:05:39.729Z,1.49
2023-02-02T01:10:43.720Z,1.46
2023-02-02T01:15:47.889Z,1.37
2023-02-02T01:21:00.301Z,1.27
2023-02-02T01:26:06.739Z,1.35
2023-02-02T01:31:13.026Z,1.33
2023-02-02T01:36:23.290Z,1.46
2023-02-02T01:41:29.079Z,1.66
2023-02-02T01:46:34.659Z,1.66
2023-02-02T01:51:44.288Z,1.78
2023-02-02T01:56:53.190Z,1.46
2023-02-02T02:01:57.541Z,1.69
2023-02-02T02:07:04.493Z,1.59
2023-02-02T02:12:14.952Z,1.46
2023-02-02T02:17:48.369Z,1.38
2023-02-02T02:23:32.746Z,1.13
2023-02-02T02:29:01.331Z,0.97
2023-02-02T02:34:11.389Z,0.98
2023-02-02T02:39:22.368Z,0.90
2023-02-02T02:44:28.121Z,1.08
2023-02-02T02:49:42.780Z,1.08
2023-02-02T02:54:51.175Z,1.11
2023-02-02T03:00:05.508Z,1.30
2023-02-02T03:05:21.857Z,1.48
2023-02-02T03:10:31.170Z,1.40
2023-02-02T03:15:35.215Z,1.52
2023-02-02T03:20:40.798Z,1.59
2023-02-02T03:25:45.344Z,1.54
2023-02-02T03:30:50.308Z,1.56
2023-02-02T03:35:55.668Z,1.54
2023-02-02T03:40:59.676Z,1.47
2023-02-02T03:46:05.409Z,1.51
2023-02-02T03:51:13.147Z,1.50
2023-02-02T03:56:19.369Z,1.48
2023-02-02T04:01:29.397Z,1.25
2023-02-02T04:06:34.741Z,1.43
2023-02-02T04:11:40.050Z,1.36
2023-02-02T04:16:44.039Z,1.28
2023-02-02T04:21:50.159Z,1.00
2023-02-02T04:26:54.232Z,1.03
2023-02-02T04:31:58.419Z,1.14
2023-02-02T04:37:03.930Z,1.10
2023-02-02T04:42:08.050Z,1.15
2023-02-02T04:47:11.971Z,1.07
2023-02-02T04:52:18.947Z,1.07
2023-02-02T04:57:22.860Z,0.85
2023-02-02T05:02:26.836Z,1.04
2023-02-02T05:07:32.941Z,1.07
2023-02-02T05:12:37.469Z,0.97
2023-02-02T05:17:41.510Z,1.03
2023-02-02T05:22:50.054Z,0.89
2023-02-02T05:27:54.026Z,0.84
2023-02-02T05:32:58.326Z,0.91
2023-02-02T05:38:05.998Z,1.04
2023-02-02T05:43:10.268Z,0.97
2023-02-02T05:48:15.348Z,1.04
2023-02-02T05:53:20.927Z,0.99
2023-02-02T05:58:25.940Z,0.98
2023-02-02T06:03:30.942Z,0.17
2023-02-02T06:08:37.312Z,0.32
2023-02-02T06:13:44.300Z,0.30
2023-02-02T06:18:50.259Z,0.84
2023-02-02T06:23:57.271Z,0.92
2023-02-02T06:29:01.362Z,0.93
2023-02-02T06:34:05.391Z,1.00
2023-02-02T06:39:11.247Z,0.96
2023-02-02T06:44:16.218Z,0.76
2023-02-02T06:49:20.368Z,0.88
2023-02-02T06:54:25.803Z,0.89
2023-02-02T06:59:29.727Z,1.06
2023-02-02T07:04:34.023Z,1.34
2023-02-02T07:09:39.439Z,1.36
2023-02-02T07:14:43.412Z,1.77
2023-02-02T07:19:48.613Z,1.96
2023-02-02T07:24:54.254Z,2.22
2023-02-02T07:29:58.289Z,2.21
2023-02-02T07:35:02.668Z,3.08
2023-02-02T07:40:09.725Z,5.02
2023-02-02T07:45:24.541Z,5.50
2023-02-02T07:50:32.609Z,7.07
2023-02-02T07:55:38.122Z,8.19
2023-02-02T08:00:42.335Z,9.94
2023-02-02T08:05:46.240Z,8.51
2023-02-02T08:10:51.939Z,8.41
2023-02-02T08:15:59.231Z,7.80
2023-02-02T08:21:04.320Z,7.62
2023-02-02T08:26:12.109Z,7.39
2023-02-02T08:31:19.267Z,7.36
2023-02-02T08:36:25.248Z,6.81
2023-02-02T08:41:31.478Z,6.94
2023-02-02T08:46:36.057Z,6.16
2023-02-02T08:51:40.013Z,5.79
2023-02-02T08:56:45.368Z,5.31
2023-02-02T09:01:49.584Z,5.26
2023-02-02T09:06:53.757Z,5.60
2023-02-02T09:11:59.148Z,6.02
2023-02-02T09:17:03.198Z,7.09
2023-02-02T09:22:07.289Z,7.66
2023-02-02T09:27:12.579Z,7.53
2023-02-02T09:32:16.524Z,7.24
2023-02-02T09:37:20.459Z,7.02
2023-02-02T09:42:53.154Z,7.34
2023-02-02T09:48:01.887Z,8.00
2023-02-02T09:53:15.568Z,7.67
2023-02-02T09:58:25.605Z,7.56
2023-02-02T10:03:37.436Z,7.87
2023-02-02T10:08:47.021Z,7.35
2023-02-02T10:13:56.731Z,7.32
2023-02-02T10:19:04.623Z,8.12
2023-02-02T10:24:17.495Z,8.02
2023-02-02T10:29:48.524Z,8.18
2023-02-02T10:35:13.962Z,9.16
2023-02-02T10:40:32.670Z,9.92
2023-02-02T10:45:41.815Z,9.54
2023-02-02T10:50:50.868Z,8.76
2023-02-02T10:55:59.858Z,8.12
2023-02-02T11:01:11.876Z,8.08
2023-02-02T11:06:34.480Z,8.40
2023-02-02T11:11:43.145Z,8.19
2023-02-02T11:17:02.562Z,7.82
2023-02-02T11:22:06.683Z,7.17
2023-02-02T11:27:16.555Z,7.03
2023-02-02T11:32:28.676Z,6.75
2023-02-02T11:37:34.378Z,6.29
2023-02-02T11:42:38.378Z,6.13
2023-02-02T11:47:43.990Z,5.95
2023-02-02T11:52:50.225Z,5.78
2023-02-02T11:58:24.841Z,5.96
2023-02-02T12:03:35.756Z,6.23
2023-02-02T12:08:39.829Z,6.51
2023-02-02T12:14:02.252Z,6.32
2023-02-02T12:19:35.294Z,6.42
2023-02-02T12:24:48.135Z,6.46
2023-02-02T12:30:11.125Z,6.43
2023-02-02T12:35:33.507Z,6.78
2023-02-02T12:41:26.035Z,8.14
2023-02-02T12:46:44.080Z,9.00
2023-02-02T12:52:01.996Z,7.90
2023-02-02T12:57:18.094Z,7.48
2023-02-02T13:02:35.607Z,7.45
2023-02-02T13:07:44.437Z,7.67
2023-02-02T13:12:55.314Z,7.66
2023-02-02T13:18:03.599Z,7.95
2023-02-02T13:23:14.829Z,8.08
2023-02-02T13:28:37.016Z,7.92
2023-02-02T13:33:45.109Z,7.58
2023-02-02T13:38:50.836Z,7.54
2023-02-02T13:44:04.110Z,7.23
2023-02-02T13:49:16.583Z,7.07
2023-02-02T13:55:03.034Z,6.72
2023-02-02T14:00:16.858Z,6.44
2023-02-02T14:05:28.335Z,6.12
2023-02-02T14:10:36.988Z,5.77
2023-02-02T14:15:45.350Z,5.39
2023-02-02T14:20:50.035Z,5.24
2023-02-02T14:26:10.640Z,4.87
2023-02-02T14:31:29.167Z,5.05
2023-02-02T14:36:33.976Z,4.83
2023-02-02T14:42:20.027Z,4.64
2023-02-02T14:47:50.240Z,4.42
2023-02-02T14:53:01.633Z,4.41
2023-02-02T14:58:09.076Z,4.38
2023-02-02T15:03:36.097Z,4.03
2023-02-02T15:08:40.153Z,3.85
2023-02-02T15:13:51.458Z,3.91
2023-02-02T15:19:05.880Z,3.85
2023-02-02T15:24:22.993Z,2.94
2023-02-02T15:29:42.882Z,2.25
2023-02-02T15:34:50.502Z,2.09
2023-02-02T15:40:00.098Z,2.33
2023-02-02T15:45:07.858Z,2.52
2023-02-02T15:50:20.419Z,2.49
2023-02-02T15:55:32.006Z,2.41
2023-02-02T16:00:39.425Z,2.44
2023-02-02T16:05:58.940Z,2.52
2023-02-02T16:11:06.775Z,2.58
2023-02-02T16:16:25.707Z,2.75
2023-02-02T16:21:31.240Z,2.62
2023-02-02T16:26:36.827Z,2.50
2023-02-02T16:31:43.568Z,2.23
2023-02-02T16:37:06.569Z,2.21
2023-02-02T16:42:12.426Z,2.14
2023-02-02T16:47:38.047Z,2.15
2023-02-02T16:52:52.694Z,2.24
2023-02-02T16:57:58.115Z,2.16
2023-02-02T17:03:07.981Z,2.24
2023-02-02T17:08:12.125Z,2.11
2023-02-02T17:13:36.630Z,2.17
2023-02-02T17:18:42.580Z,2.06
2023-02-02T17:23:51.629Z,1.75
2023-02-02T17:28:57.969Z,1.58
2023-02-02T17:34:04.256Z,1.79
2023-02-02T17:39:11.456Z,1.80
2023-02-02T17:44:16.735Z,1.36
2023-02-02T17:49:26.811Z,1.51
2023-02-02T17:54:33.509Z,1.56
2023-02-02T17:59:38.245Z,1.45
2023-02-02T18:04:45.605Z,1.37
2023-02-02T18:09:50.909Z,1.44
2023-02-02T18:14:55.070Z,1.80
2023-02-02T18:20:00.981Z,1.35
2023-02-02T18:25:07.815Z,1.00
2023-02-02T18:30:14.130Z,1.07
2023-02-02T18:35:19.906Z,1.34
2023-02-02T18:40:24.973Z,1.34
2023-02-02T18:45:29.409Z,1.15
2023-02-02T18:50:34.997Z,1.07
2023-02-02T18:55:39.797Z,1.43
2023-02-02T19:00:47.538Z,1.65
2023-02-02T19:06:10.342Z,1.36
2023-02-02T19:11:19.000Z,1.18
2023-02-02T19:16:27.719Z,0.97
2023-02-02T19:21:33.137Z,0.80
2023-02-02T19:26:39.572Z,0.89
2023-02-02T19:31:44.085Z,0.78
2023-02-02T19:36:51.648Z,0.87
2023-02-02T19:41:59.901Z,0.76
2023-02-02T19:47:18.619Z,0.68
2023-02-02T19:52:26.868Z,0.77
2023-02-02T19:57:36.739Z,1.09
2023-02-02T20:02:55.571Z,0.96
2023-02-02T20:08:15.309Z,0.80
2023-02-02T20:13:22.988Z,0.82
2023-02-02T20:18:30.851Z,1.12
2023-02-02T20:23:42.909Z,0.82
2023-02-02T20:28:48.017Z,0.67
2023-02-02T20:33:55.334Z,0.85
2023-02-02T20:39:22.100Z,1.18
2023-02-02T20:44:26.962Z,0.91
2023-02-02T20:49:32.338Z,0.45
2023-02-02T20:54:39.331Z,0.52
2023-02-02T20:59:43.870Z,0.61
2023-02-02T21:04:49.008Z,0.57
2023-02-02T21:09:54.879Z,0.37
2023-02-02T21:14:59.030Z,0.43
2023-02-02T21:20:03.664Z,0.41
2023-02-02T21:25:10.468Z,0.38
2023-02-02T21:30:15.171Z,0.30
2023-02-02T21:35:19.918Z,0.26
2023-02-02T21:40:30.449Z,0.26
2023-02-02T21:45:37.205Z,0.27
2023-02-02T21:50:43.075Z,0.31
2023-02-02T21:55:52.253Z,0.31
2023-02-02T22:01:00.778Z,0.65
2023-02-02T22:06:23.107Z,0.61
2023-02-02T22:11:37.442Z,0.65
2023-02-02T22:16:49.646Z,0.82
2023-02-02T22:21:56.640Z,0.85
2023-02-02T22:27:04.850Z,0.86
2023-02-02T22:32:09.091Z,0.75
2023-02-02T22:37:13.493Z,0.90
2023-02-02T22:42:19.149Z,0.97
2023-02-02T22:47:23.474Z,1.34
2023-02-02T22:52:27.678Z,1.27
2023-02-02T22:57:33.273Z,1.17
2023-02-02T23:02:39.280Z,1.49
2023-02-02T23:07:44.399Z,1.18
2023-02-02T23:12:50.460Z,0.86
2023-02-02T23:17:54.760Z,0.64
2023-02-02T23:22:59.017Z,0.42
2023-02-02T23:28:04.416Z,0.52
2023-02-02T23:33:08.526Z,0.46
2023-02-02T23:38:13.511Z,0.54
2023-02-02T23:43:19.049Z,0.55
2023-02-02T23:48:23.550Z,0.36
2023-02-02T23:53:27.702Z,0.27
2023-02-02T23:58:37.867Z,0.28
